Time;durP1;ratioP1;P1;durP2;ratioP2;P2;SDS_P1;SDS_P2;PMS_P1;PMS_P2;Temp;Humidity;BMP_temperature;BMP_pressure;BME280_temperature;BME280_humidity;BME280_pressure;Samples;Min_cycle;Max_cycle;Signal;HPM_P1;HPM_P2
2023/12/28 00:00:25;;;;;;;31.87;14.93;;;;;;;1.74;56.29;101630.31;124963;1099;102225;-76
2023/12/28 00:03:16;;;;;;;31.40;15.90;;;;;;;1.74;56.12;101640.66;124938;1099;101955;-76
2023/12/28 00:05:47;;;;;;;33.97;16.73;;;;;;;1.75;56.63;101640.80;124949;1098;104268;-76
2023/12/28 00:08:18;;;;;;;28.37;13.57;;;;;;;1.73;56.31;101647.53;124973;1099;104217;-76
2023/12/28 00:10:50;;;;;;;28.57;11.90;;;;;;;1.72;56.69;101642.22;125039;1099;101916;-77
2023/12/28 00:13:21;;;;;;;28.97;12.40;;;;;;;1.70;56.69;101647.25;125074;1099;104169;-77
2023/12/28 00:15:53;;;;;;;28.43;12.20;;;;;;;1.70;57.18;101642.08;124538;1099;102280;-76
2023/12/28 00:18:24;;;;;;;28.93;13.37;;;;;;;1.73;56.93;101639.77;125129;1099;104140;-76
2023/12/28 00:20:55;;;;;;;29.07;13.23;;;;;;;1.77;57.32;101643.52;124637;1099;101919;-77
2023/12/28 00:23:26;;;;;;;29.40;13.07;;;;;;;1.72;56.99;101648.28;124545;1099;101806;-77
2023/12/28 00:25:58;;;;;;;28.87;13.37;;;;;;;1.63;56.72;101651.73;124536;1098;104431;-76
2023/12/28 00:28:29;;;;;;;31.53;13.67;;;;;;;1.54;56.86;101654.39;124985;1099;104181;-76
2023/12/28 00:31:00;;;;;;;33.47;14.23;;;;;;;1.49;56.96;101653.08;125012;1099;104249;-76
2023/12/28 00:33:32;;;;;;;30.33;14.30;;;;;;;1.48;57.43;101659.01;124877;1099;104185;-76
2023/12/28 00:36:03;;;;;;;33.13;15.10;;;;;;;1.44;57.42;101668.18;124655;1099;101896;-76
2023/12/28 00:38:35;;;;;;;29.27;14.23;;;;;;;1.35;56.96;101660.48;125049;1099;104172;-78
2023/12/28 00:41:07;;;;;;;28.03;13.60;;;;;;;1.30;57.19;101661.75;124799;1099;102188;-77
2023/12/28 00:43:38;;;;;;;28.20;14.27;;;;;;;1.22;57.55;101666.22;124540;1102;101910;-77
2023/12/28 00:46:09;;;;;;;32.77;13.93;;;;;;;1.13;57.46;101672.23;124469;1099;101989;-77
2023/12/28 00:48:41;;;;;;;30.37;13.83;;;;;;;0.98;57.39;101682.98;124562;1099;102280;-77
2023/12/28 00:51:13;;;;;;;31.00;14.33;;;;;;;0.88;57.17;101686.36;124524;1099;102347;-77
2023/12/28 00:53:44;;;;;;;28.73;13.20;;;;;;;0.82;57.58;101687.47;124866;1099;102112;-77
2023/12/28 00:56:15;;;;;;;34.70;14.13;;;;;;;0.77;57.56;101691.30;124985;1099;104224;-77
2023/12/28 00:58:47;;;;;;;32.10;14.60;;;;;;;0.71;57.52;101691.63;124942;1099;101881;-77
2023/12/28 01:01:18;;;;;;;31.23;14.03;;;;;;;0.66;57.73;101693.78;124464;1099;101857;-77
2023/12/28 01:03:49;;;;;;;28.37;12.97;;;;;;;0.59;57.87;101686.20;124350;1102;104217;-77
2023/12/28 01:06:21;;;;;;;29.27;13.50;;;;;;;0.53;58.42;101689.13;124948;1099;104450;-77
2023/12/28 01:08:52;;;;;;;30.50;13.10;;;;;;;0.46;58.43;101685.82;124474;1099;104373;-77
2023/12/28 01:11:23;;;;;;;31.57;14.00;;;;;;;0.42;57.67;101687.22;124892;1099;101878;-77
2023/12/28 01:13:55;;;;;;;29.60;13.60;;;;;;;0.38;57.96;101686.77;124719;1099;104175;-77
2023/12/28 01:16:26;;;;;;;29.67;13.37;;;;;;;0.34;58.89;101682.97;124884;1099;101987;-77
2023/12/28 01:18:58;;;;;;;27.77;13.57;;;;;;;0.29;58.62;101685.11;124894;1099;104169;-77
2023/12/28 01:21:30;;;;;;;29.10;12.90;;;;;;;0.25;58.33;101682.09;124499;1099;101951;-77
2023/12/28 01:24:02;;;;;;;28.53;13.50;;;;;;;0.20;58.23;101684.23;124535;1099;101931;-77
2023/12/28 01:26:34;;;;;;;34.47;13.17;;;;;;;0.15;58.16;101677.72;124504;1099;102025;-77
2023/12/28 01:29:05;;;;;;;28.13;12.43;;;;;;;0.13;59.35;101671.52;124517;1099;101988;-77
2023/12/28 01:31:38;;;;;;;31.67;12.97;;;;;;;0.12;59.02;101670.58;124576;1099;104088;-77
2023/12/28 01:34:10;;;;;;;28.63;12.57;;;;;;;0.16;59.19;101676.97;124538;1099;101995;-77
2023/12/28 01:36:44;;;;;;;25.73;12.47;;;;;;;0.20;59.11;101676.48;124986;1098;104226;-77
2023/12/28 01:39:18;;;;;;;27.75;12.65;;;;;;;0.22;59.48;101667.23;124597;1099;104316;-77
2023/12/28 01:41:49;;;;;;;30.45;12.85;;;;;;;0.21;59.53;101672.25;124496;1099;104198;-77
2023/12/28 01:44:21;;;;;;;27.67;11.30;;;;;;;0.16;59.30;101672.70;124930;1099;104399;-77
2023/12/28 01:46:53;;;;;;;27.67;11.87;;;;;;;0.13;59.60;101662.09;124933;1099;104236;-77
2023/12/28 01:49:25;;;;;;;31.37;11.60;;;;;;;0.12;59.70;101670.58;124568;1099;104255;-77
2023/12/28 01:51:56;;;;;;;26.93;11.63;;;;;;;0.09;59.10;101667.70;125055;1099;102343;-77
2023/12/28 01:54:27;;;;;;;25.57;11.23;;;;;;;0.06;59.67;101669.09;125024;1099;104182;-77
2023/12/28 01:57:01;;;;;;;28.40;11.40;;;;;;;0.05;59.64;101673.36;125034;1099;104322;-77
2023/12/28 01:59:33;;;;;;;19.50;8.70;;;;;;;0.07;59.65;101676.08;124573;1099;104220;-77
2023/12/28 02:02:05;;;;;;;29.23;11.73;;;;;;;0.03;59.97;101681.70;125176;1099;104294;-77
2023/12/28 02:04:36;;;;;;;29.63;13.13;;;;;;;-0.01;59.75;101683.98;124642;1099;104239;-77
2023/12/28 02:07:09;;;;;;;29.33;12.07;;;;;;;0.02;59.59;101682.45;124585;1099;102006;-77
2023/12/28 02:09:40;;;;;;;27.43;12.20;;;;;;;0.05;59.76;101677.59;124603;1099;104348;-77
2023/12/28 02:12:12;;;;;;;25.03;11.87;;;;;;;0.02;60.35;101678.22;125023;1098;102036;-77
2023/12/28 02:14:44;;;;;;;31.33;13.00;;;;;;;-0.04;59.54;101673.36;124460;1099;102342;-76
2023/12/28 02:17:17;;;;;;;29.83;12.50;;;;;;;-0.04;59.42;101668.20;125055;1099;102365;-77
2023/12/28 02:19:54;;;;;;;30.77;12.93;;;;;;;-0.04;59.80;101675.95;124445;1102;104200;-77
2023/12/28 02:22:27;;;;;;;29.43;12.60;;;;;;;-0.05;60.21;101675.80;124946;1099;101888;-77
2023/12/28 02:25:07;;;;;;;33.97;14.70;;;;;;;-0.03;59.47;101670.03;124987;1099;104179;-77
2023/12/28 02:27:42;;;;;;;33.63;13.67;;;;;;;0.03;59.92;101674.86;125044;1099;104178;-77
2023/12/28 02:30:15;;;;;;;31.37;14.23;;;;;;;0.04;60.48;101683.53;125012;1099;104258;-77
2023/12/28 02:33:01;;;;;;;32.80;14.07;;;;;;;0.04;60.31;101681.84;124922;1098;104380;-77
2023/12/28 02:35:37;;;;;;;26.73;13.57;;;;;;;0.03;60.51;101679.12;124999;1099;104277;-77
2023/12/28 02:38:12;;;;;;;31.43;13.87;;;;;;;0.00;60.09;101679.75;124574;1099;104172;-77
2023/12/28 02:40:45;;;;;;;28.50;13.13;;;;;;;-0.01;60.14;101668.50;125008;1099;104188;-77
2023/12/28 02:43:17;;;;;;;32.97;14.30;;;;;;;0.02;59.87;101675.64;124994;1099;104166;-77
2023/12/28 02:45:48;;;;;;;30.70;13.40;;;;;;;0.06;60.07;101656.19;124918;1098;104338;-76
2023/12/28 02:48:19;;;;;;;30.67;13.40;;;;;;;0.11;60.03;101652.36;124919;1099;104633;-77
2023/12/28 02:50:51;;;;;;;26.43;12.33;;;;;;;0.12;60.51;101649.03;124971;1099;104191;-77
2023/12/28 02:53:22;;;;;;;27.63;12.67;;;;;;;0.16;60.75;101658.91;124960;1099;104173;-77
2023/12/28 02:55:53;;;;;;;30.33;12.47;;;;;;;0.21;60.15;101651.59;125003;1099;104312;-77
2023/12/28 02:58:25;;;;;;;29.03;12.90;;;;;;;0.24;60.08;101649.31;124924;1099;104223;-77
2023/12/28 03:00:56;;;;;;;29.03;13.00;;;;;;;0.27;60.44;101660.83;124454;1099;102214;-77
2023/12/28 03:03:27;;;;;;;32.77;12.77;;;;;;;0.28;60.84;101662.66;124947;1099;102511;-77
2023/12/28 03:05:59;;;;;;;29.93;12.43;;;;;;;0.30;60.56;101666.28;124476;1099;104740;-77
2023/12/28 03:08:31;;;;;;;26.67;12.60;;;;;;;0.32;60.89;101657.00;124949;1099;104197;-77
2023/12/28 03:11:02;;;;;;;30.37;13.03;;;;;;;0.33;60.81;101653.67;124969;1099;104285;-77
2023/12/28 03:13:33;;;;;;;29.60;13.53;;;;;;;0.35;60.88;101648.65;124992;1099;103542;-77
2023/12/28 03:16:05;;;;;;;28.03;12.20;;;;;;;0.36;61.01;101642.73;124499;1099;104233;-76
2023/12/28 03:18:37;;;;;;;28.33;12.93;;;;;;;0.38;60.85;101632.55;124637;1099;104233;-77
2023/12/28 03:21:08;;;;;;;27.20;12.23;;;;;;;0.42;60.64;101634.63;124908;1099;102038;-77
2023/12/28 03:23:40;;;;;;;30.87;12.87;;;;;;;0.46;61.01;101631.59;124541;1099;104169;-77
2023/12/28 03:26:11;;;;;;;27.37;12.50;;;;;;;0.48;60.78;101630.98;124439;1099;101929;-76
2023/12/28 03:28:42;;;;;;;27.90;12.07;;;;;;;0.52;61.36;101638.23;124937;1099;101830;-77
2023/12/28 03:31:14;;;;;;;28.97;13.07;;;;;;;0.54;60.70;101641.86;124974;1098;104179;-76
2023/12/28 03:33:45;;;;;;;24.70;11.57;;;;;;;0.53;61.46;101652.97;124966;1098;104233;-77
2023/12/28 03:36:23;;;;;;;25.93;11.90;;;;;;;0.53;61.50;101675.28;124943;1099;102012;-76
2023/12/28 03:38:54;;;;;;;26.07;12.63;;;;;;;0.54;61.54;101666.78;124909;1099;102867;-77
2023/12/28 03:41:25;;;;;;;28.13;12.50;;;;;;;0.52;61.43;101669.22;124914;1099;104217;-77
2023/12/28 03:43:57;;;;;;;25.30;11.97;;;;;;;0.51;61.29;101656.16;124880;1099;104261;-77
2023/12/28 03:46:28;;;;;;;27.50;12.73;;;;;;;0.53;61.50;101654.63;124960;1098;101820;-77
2023/12/28 03:48:59;;;;;;;26.83;11.93;;;;;;;0.56;61.70;101659.19;125024;1099;102456;-77
2023/12/28 03:51:30;;;;;;;30.20;11.70;;;;;;;0.55;61.59;101663.45;125000;1099;104191;-77
2023/12/28 03:54:02;;;;;;;25.73;11.30;;;;;;;0.55;61.59;101650.53;125014;1098;104265;-77
2023/12/28 03:56:35;;;;;;;25.17;11.37;;;;;;;0.57;61.61;101650.68;124488;1098;110784;-76
2023/12/28 03:59:06;;;;;;;22.33;9.13;;;;;;;0.60;61.82;101638.05;124976;1098;101824;-76
2023/12/28 04:01:38;;;;;;;26.73;11.73;;;;;;;0.62;61.72;101624.49;124538;1099;101941;-77
2023/12/28 04:04:10;;;;;;;26.03;9.87;;;;;;;0.64;61.64;101624.64;124905;1099;104165;-77
2023/12/28 04:06:43;;;;;;;26.80;11.45;;;;;;;0.67;61.76;101614.59;124534;1099;101843;-76
2023/12/28 04:09:15;;;;;;;32.03;12.58;;;;;;;0.69;62.13;101597.58;124487;1099;104293;-77
2023/12/28 04:11:47;;;;;;;34.73;13.60;;;;;;;0.74;62.17;101608.34;124889;1098;104179;-77
2023/12/28 04:14:18;;;;;;;35.20;15.10;;;;;;;0.70;62.38;101625.20;124915;1099;104164;-78
2023/12/28 04:16:50;;;;;;;38.95;17.45;;;;;;;0.60;62.28;101623.45;124419;1099;107826;-77
2023/12/28 04:19:21;;;;;;;37.40;18.63;;;;;;;0.51;62.19;101591.59;124912;1099;104297;-77
2023/12/28 04:21:52;;;;;;;37.87;18.60;;;;;;;0.43;62.26;101585.71;124944;1098;104290;-77
2023/12/28 04:24:23;;;;;;;40.63;19.00;;;;;;;0.36;61.45;101596.25;124974;1098;104179;-77
2023/12/28 04:26:55;;;;;;;37.17;19.07;;;;;;;0.26;62.02;101607.36;124811;1099;104316;-77
2023/12/28 04:29:27;;;;;;;41.00;20.67;;;;;;;0.21;62.40;101616.36;124896;1099;104296;-77
2023/12/28 04:31:59;;;;;;;42.47;19.37;;;;;;;0.16;63.03;101617.60;124414;1099;101936;-77
2023/12/28 04:34:30;;;;;;;37.33;17.83;;;;;;;0.17;63.03;101617.75;124847;1098;104156;-77
2023/12/28 04:37:01;;;;;;;41.93;19.07;;;;;;;0.20;62.98;101621.38;124494;1099;104277;-77
2023/12/28 04:39:33;;;;;;;44.53;19.13;;;;;;;0.20;62.02;101627.44;124485;1102;104247;-77
2023/12/28 04:42:04;;;;;;;43.90;19.33;;;;;;;0.23;62.47;101626.83;124441;1099;104239;-77
2023/12/28 04:44:40;;;;;;;39.63;18.33;;;;;;;0.27;62.82;101629.84;124952;1099;104248;-77
2023/12/28 04:47:12;;;;;;;40.23;19.73;;;;;;;0.31;62.32;101626.80;124515;1099;104297;-77
2023/12/28 04:49:43;;;;;;;43.07;20.00;;;;;;;0.35;63.02;101631.47;124954;1099;102090;-77
2023/12/28 04:52:14;;;;;;;46.07;19.90;;;;;;;0.35;63.01;101628.89;124826;1099;102295;-78
2023/12/28 04:54:46;;;;;;;38.60;17.97;;;;;;;0.37;62.84;101636.78;124830;1099;104331;-78
2023/12/28 04:57:17;;;;;;;39.83;18.27;;;;;;;0.39;62.54;101637.86;124447;1102;102160;-78
2023/12/28 04:59:48;;;;;;;42.07;18.13;;;;;;;0.41;63.04;101636.32;124817;1099;101950;-78
2023/12/28 05:02:19;;;;;;;44.97;17.60;;;;;;;0.44;62.69;101622.80;124462;1099;101843;-77
2023/12/28 05:04:51;;;;;;;45.90;19.20;;;;;;;0.47;62.39;101613.66;124491;1099;102015;-77
2023/12/28 05:07:23;;;;;;;58.15;19.55;;;;;;;0.50;62.13;101607.88;124539;1099;103011;-78
2023/12/28 05:09:54;;;;;;;40.57;18.17;;;;;;;0.50;62.48;101618.21;124969;1099;104239;-78
2023/12/28 05:12:26;;;;;;;37.90;17.90;;;;;;;0.53;63.01;101623.63;124534;1099;104185;-78
2023/12/28 05:14:57;;;;;;;37.63;16.93;;;;;;;0.58;62.77;101631.81;124523;1099;104169;-78
2023/12/28 05:17:28;;;;;;;41.10;17.97;;;;;;;0.59;62.80;101636.22;124472;1102;102002;-77
2023/12/28 05:20:00;;;;;;;41.47;18.97;;;;;;;0.58;63.07;101622.41;124981;1099;101952;-77
2023/12/28 05:22:31;;;;;;;37.07;17.53;;;;;;;0.60;62.76;101618.28;124576;1102;104258;-76
2023/12/28 05:25:02;;;;;;;39.30;18.67;;;;;;;0.60;63.17;101617.39;124473;1099;104105;-76
2023/12/28 05:27:33;;;;;;;42.40;19.47;;;;;;;0.58;63.00;101612.08;125025;1099;101970;-76
2023/12/28 05:30:06;;;;;;;45.80;20.40;;;;;;;0.58;63.23;101606.91;125118;1099;102057;-76
2023/12/28 05:32:37;;;;;;;49.27;20.77;;;;;;;0.58;63.00;101595.65;125044;1098;104226;-76
2023/12/28 05:35:09;;;;;;;45.87;20.63;;;;;;;0.56;63.16;101587.75;124984;1099;102221;-76
2023/12/28 05:37:40;;;;;;;53.67;23.60;;;;;;;0.55;63.06;101583.38;125017;1099;101925;-77
2023/12/28 05:40:13;;;;;;;59.17;25.53;;;;;;;0.53;63.14;101569.39;125029;1098;104221;-77
2023/12/28 05:42:44;;;;;;;57.90;24.70;;;;;;;0.51;63.01;101570.94;124979;1099;101988;-76
2023/12/28 05:45:16;;;;;;;54.53;24.83;;;;;;;0.51;62.96;101573.52;124916;1099;104262;-77
2023/12/28 05:47:47;;;;;;;48.93;23.67;;;;;;;0.54;63.53;101590.20;125062;1099;101865;-77
2023/12/28 05:50:18;;;;;;;50.80;23.40;;;;;;;0.56;63.15;101586.86;125078;1099;104193;-77
2023/12/28 05:52:50;;;;;;;52.37;24.17;;;;;;;0.54;63.00;101597.95;124935;1099;103360;-75
2023/12/28 05:55:21;;;;;;;49.00;21.13;;;;;;;0.52;63.49;101591.73;124982;1099;101951;-75
2023/12/28 05:57:52;;;;;;;50.83;22.83;;;;;;;0.53;63.92;101601.31;124670;1099;104088;-74
2023/12/28 06:00:24;;;;;;;45.50;22.37;;;;;;;0.52;63.60;101607.23;125126;1099;104176;-74
2023/12/28 06:02:55;;;;;;;45.35;20.43;;;;;;;0.53;63.78;101609.06;116577;1098;10001776;-75
2023/12/28 06:05:27;;;;;;;47.43;23.20;;;;;;;0.58;63.74;101613.73;125184;1099;104098;-75
2023/12/28 06:08:01;;;;;;;44.00;22.30;;;;;;;0.61;63.90;101614.95;125149;1099;104216;-75
2023/12/28 06:10:34;;;;;;;55.50;27.58;;;;;;;0.61;64.16;101609.78;125127;1098;102902;-76
2023/12/28 06:13:10;;;;;;;58.27;31.30;;;;;;;0.57;64.45;101614.52;125235;1099;101983;-76
2023/12/28 06:15:41;;;;;;;63.07;30.97;;;;;;;0.52;64.08;101601.17;125400;1099;102033;-76
2023/12/28 06:18:13;;;;;;;61.87;29.27;;;;;;;0.43;64.23;101603.79;125302;1099;102750;-77
2023/12/28 06:20:47;;;;;;;52.83;25.67;;;;;;;0.40;64.12;101605.19;125424;1099;102649;-74
2023/12/28 06:23:17;;;;;;;;;;;;;;;0.41;64.84;101609.59;125501;1099;104214;-76
2023/12/28 06:25:48;;;;;;;51.77;25.80;;;;;;;0.44;64.31;101612.47;125124;1099;102524;-76
2023/12/28 06:28:20;;;;;;;51.07;24.90;;;;;;;0.51;64.27;101617.42;125275;1099;102423;-76
2023/12/28 06:30:52;;;;;;;48.80;25.07;;;;;;;0.55;64.52;101611.80;125534;1099;102335;-77
2023/12/28 06:33:23;;;;;;;51.87;25.57;;;;;;;0.61;64.63;101608.84;125791;1099;102171;-77
2023/12/28 06:35:54;;;;;;;48.30;24.30;;;;;;;0.64;64.48;101607.48;125759;1099;101888;-77
2023/12/28 06:38:26;;;;;;;49.40;22.57;;;;;;;0.72;64.23;101610.78;125041;1099;101849;-76
2023/12/28 06:40:57;;;;;;;49.37;22.83;;;;;;;0.82;64.69;101613.43;125336;1099;104341;-77
2023/12/28 06:43:28;;;;;;;48.83;22.03;;;;;;;0.98;64.52;101617.42;125056;1099;102238;-77
2023/12/28 06:46:00;;;;;;;44.97;21.90;;;;;;;1.10;64.35;101625.41;125418;1098;102709;-76
2023/12/28 06:48:32;;;;;;;44.57;20.90;;;;;;;1.20;64.92;101616.05;125847;1098;102954;-76
2023/12/28 06:51:03;;;;;;;48.63;22.83;;;;;;;1.30;64.47;101612.61;125276;1099;101792;-77
2023/12/28 06:53:35;;;;;;;48.20;22.70;;;;;;;1.40;64.67;101620.45;126835;1098;101932;-78
2023/12/28 06:56:08;;;;;;;47.47;21.50;;;;;;;1.49;65.09;101622.94;125697;1099;104169;-77
2023/12/28 06:58:39;;;;;;;47.40;21.73;;;;;;;1.58;64.61;101616.00;125827;1099;104195;-76
2023/12/28 07:01:10;;;;;;;46.13;20.90;;;;;;;1.66;64.75;101610.61;125016;1099;102075;-76
2023/12/28 07:03:42;;;;;;;51.83;22.70;;;;;;;1.72;64.76;101619.82;125289;1099;101916;-74
2023/12/28 07:06:14;;;;;;;48.00;21.13;;;;;;;1.80;64.51;101608.45;125497;1099;102811;-76
2023/12/28 07:08:45;;;;;;;42.47;20.60;;;;;;;1.85;64.73;101603.69;125284;1099;101904;-77
2023/12/28 07:11:17;;;;;;;41.63;18.77;;;;;;;1.92;65.04;101603.47;125034;1098;101871;-75
2023/12/28 07:13:48;;;;;;;40.77;18.13;;;;;;;2.02;64.81;101600.00;124489;1099;104185;-75
2023/12/28 07:16:24;;;;;;;35.97;16.13;;;;;;;2.10;64.77;101598.08;124566;1099;103130;-74
2023/12/28 07:18:56;;;;;;;38.23;16.50;;;;;;;2.15;64.50;101584.77;124695;1099;104469;-74
2023/12/28 07:21:28;;;;;;;41.37;16.83;;;;;;;2.24;64.55;101582.05;124291;1099;102061;-74
2023/12/28 07:23:59;;;;;;;39.83;16.37;;;;;;;2.33;64.98;101580.25;124744;1099;104270;-73
2023/12/28 07:26:30;;;;;;;39.37;16.13;;;;;;;2.42;64.87;101559.42;124821;1098;104240;-76
2023/12/28 07:29:02;;;;;;;35.63;16.37;;;;;;;2.49;65.33;101563.43;125343;1099;102462;-76
2023/12/28 07:31:34;;;;;;;40.07;16.50;;;;;;;2.53;64.67;101562.92;125373;1099;104265;-77
2023/12/28 07:34:05;;;;;;;42.63;17.70;;;;;;;2.61;64.40;101558.39;125713;1099;102246;-75
2023/12/28 07:36:37;;;;;;;37.27;16.20;;;;;;;2.68;64.47;101547.74;125138;1099;102962;-75
2023/12/28 07:39:08;;;;;;;38.03;16.20;;;;;;;2.73;64.75;101555.91;125331;1098;101878;-75
2023/12/28 07:41:44;;;;;;;38.93;15.73;;;;;;;2.77;65.03;101551.11;125405;1099;101891;-75
2023/12/28 07:44:16;;;;;;;44.20;17.37;;;;;;;2.83;64.36;101543.84;124761;1099;104277;-74
2023/12/28 07:46:47;;;;;;;36.55;15.45;;;;;;;2.94;64.43;101547.33;124654;1099;104221;-74
2023/12/28 07:49:19;;;;;;;36.57;15.00;;;;;;;3.06;64.64;101543.16;124875;1099;104265;-74
2023/12/28 07:51:50;;;;;;;34.20;14.73;;;;;;;3.18;65.02;101545.87;125050;1099;101932;-74
2023/12/28 07:54:21;;;;;;;32.97;13.87;;;;;;;3.33;65.00;101537.52;124704;1099;104166;-73
2023/12/28 07:56:53;;;;;;;28.00;12.83;;;;;;;3.44;64.15;101531.50;124319;1099;102916;-75
2023/12/28 07:59:27;;;;;;;28.63;12.57;;;;;;;3.58;64.22;101519.64;124728;1099;104187;-74
2023/12/28 08:02:01;;;;;;;29.63;11.67;;;;;;;3.70;64.21;101528.41;124215;1099;102848;-76
2023/12/28 08:04:34;;;;;;;24.83;10.60;;;;;;;3.86;64.29;101525.33;124537;1098;104191;-75
2023/12/28 08:07:06;;;;;;;31.20;11.53;;;;;;;4.05;64.39;101522.52;124728;1099;102187;-74
2023/12/28 08:09:38;;;;;;;30.37;11.83;;;;;;;4.22;64.12;101526.39;125094;1099;104255;-75
2023/12/28 08:12:11;;;;;;;27.90;10.97;;;;;;;4.38;64.43;101524.98;126443;1098;101857;-74
2023/12/28 08:14:43;;;;;;;25.37;10.27;;;;;;;4.53;64.30;101520.06;125343;1098;103101;-76
2023/12/28 08:17:14;;;;;;;25.67;11.40;;;;;;;4.67;63.56;101529.81;124845;1099;102176;-74
2023/12/28 08:19:47;;;;;;;31.47;12.53;;;;;;;4.66;63.82;101526.31;124434;1099;104264;-74
2023/12/28 08:22:18;;;;;;;33.07;11.07;;;;;;;4.68;63.96;101527.33;125002;1099;102706;-74
2023/12/28 08:24:50;;;;;;;27.70;11.67;;;;;;;4.73;63.90;101535.48;125329;1099;104354;-74
2023/12/28 08:27:21;;;;;;;27.50;11.27;;;;;;;4.84;63.79;101533.69;125297;1099;104178;-74
2023/12/28 08:29:52;;;;;;;29.77;11.83;;;;;;;4.98;64.15;101525.22;125366;1099;102044;-75
2023/12/28 08:32:32;;;;;;;27.40;11.25;;;;;;;5.16;64.16;101523.09;125575;1099;104175;-74
2023/12/28 08:35:04;;;;;;;23.83;9.77;;;;;;;5.30;64.01;101520.57;125440;1099;102544;-74
2023/12/28 08:37:35;;;;;;;25.33;8.53;;;;;;;5.48;64.05;101511.50;125000;1099;104057;-74
2023/12/28 08:40:08;;;;;;;20.83;8.07;;;;;;;5.62;63.23;101504.69;125209;1099;104278;-73
2023/12/28 08:42:40;;;;;;;16.03;6.53;;;;;;;5.71;63.62;101507.06;125148;1099;104204;-74
2023/12/28 08:45:12;;;;;;;19.27;5.87;;;;;;;5.76;63.71;101504.00;125154;1098;102045;-75
2023/12/28 08:47:43;;;;;;;14.23;6.30;;;;;;;5.78;63.75;101495.37;124962;1099;104194;-75
2023/12/28 08:50:15;;;;;;;17.80;6.10;;;;;;;5.79;63.42;101500.69;125091;1099;102351;-74
2023/12/28 08:52:46;;;;;;;15.00;5.63;;;;;;;5.82;62.74;101484.37;124356;1099;104314;-74
2023/12/28 08:55:18;;;;;;;17.20;6.00;;;;;;;5.85;62.84;101480.28;124954;1099;104211;-75
2023/12/28 08:57:49;;;;;;;16.10;5.20;;;;;;;5.88;63.22;101477.89;124886;1099;104223;-73
2023/12/28 09:00:20;;;;;;;17.17;6.03;;;;;;;5.90;62.83;101470.19;124838;1099;104360;-75
2023/12/28 09:02:52;;;;;;;16.13;6.07;;;;;;;5.93;62.79;101470.40;125054;1099;102217;-73
2023/12/28 09:05:24;;;;;;;17.87;6.23;;;;;;;6.00;62.56;101454.44;124804;1099;104172;-73
2023/12/28 09:07:56;;;;;;;15.20;5.00;;;;;;;6.04;61.82;101459.05;125890;1098;102168;-73
2023/12/28 09:10:27;;;;;;;20.57;6.80;;;;;;;6.12;62.61;101451.77;124751;1099;104182;-73
2023/12/28 09:13:00;;;;;;;24.23;7.57;;;;;;;6.21;62.41;101451.50;124817;1099;102033;-73
2023/12/28 09:15:32;;;;;;;18.50;6.33;;;;;;;6.30;62.62;101439.98;124259;1102;102021;-73
2023/12/28 09:18:06;;;;;;;16.20;5.80;;;;;;;6.36;61.73;101431.69;124783;1099;104201;-73
2023/12/28 09:20:40;;;;;;;20.83;5.47;;;;;;;6.41;61.92;101430.29;125301;1099;102064;-74
2023/12/28 09:23:11;;;;;;;15.43;5.93;;;;;;;6.44;61.93;101427.00;124665;1098;104268;-74
2023/12/28 09:25:44;;;;;;;17.73;5.90;;;;;;;6.46;61.39;101422.78;124794;1099;104214;-73
2023/12/28 09:28:15;;;;;;;19.27;5.50;;;;;;;6.52;60.67;101411.87;124658;1099;104316;-73
2023/12/28 09:30:47;;;;;;;14.87;4.80;;;;;;;6.65;61.68;101406.64;124540;1099;102037;-73
2023/12/28 09:33:18;;;;;;;21.17;5.97;;;;;;;6.80;61.54;101404.15;124692;1099;110801;-74
2023/12/28 09:35:53;;;;;;;12.20;4.80;;;;;;;6.92;61.12;101393.59;124819;1099;104358;-76
2023/12/28 09:38:26;;;;;;;11.57;4.47;;;;;;;6.99;60.81;101391.47;124801;1099;104166;-74
2023/12/28 09:41:06;;;;;;;9.60;4.10;;;;;;;7.11;60.80;101378.32;124629;1098;104651;-73
2023/12/28 09:43:47;;;;;;;11.48;4.40;;;;;;;7.17;60.68;101373.48;116223;1098;10001704;-73
2023/12/28 09:46:18;;;;;;;13.47;4.30;;;;;;;7.25;60.93;101357.42;124827;1099;104353;-74
2023/12/28 09:48:50;;;;;;;19.53;4.83;;;;;;;7.34;60.83;101355.39;124835;1099;101902;-75
2023/12/28 09:51:25;;;;;;;12.07;4.10;;;;;;;7.41;60.53;101347.11;124918;1098;104238;-73
2023/12/28 09:53:57;;;;;;;11.30;3.97;;;;;;;7.49;60.54;101344.97;124680;1099;110902;-73
2023/12/28 09:56:28;;;;;;;13.33;4.23;;;;;;;7.56;60.58;101335.00;124763;1099;104269;-74
2023/12/28 09:59:00;;;;;;;10.53;4.03;;;;;;;7.66;60.71;101346.01;124737;1099;104185;-74
2023/12/28 10:01:32;;;;;;;10.37;4.27;;;;;;;7.65;60.06;101342.50;124284;1099;101998;-75
2023/12/28 10:04:08;;;;;;;8.63;3.70;;;;;;;7.62;58.99;101342.31;124455;1099;104253;-75
2023/12/28 10:06:39;;;;;;;9.90;3.77;;;;;;;7.64;59.78;101339.80;124753;1099;104277;-74
2023/12/28 10:09:11;;;;;;;10.23;4.00;;;;;;;7.69;58.97;101336.64;124964;1099;101813;-76
2023/12/28 10:11:43;;;;;;;10.57;3.93;;;;;;;7.72;59.28;101341.16;124736;1099;101942;-73
2023/12/28 10:14:14;;;;;;;13.15;3.90;;;;;;;7.77;60.05;101344.94;124499;1099;107049;-76
2023/12/28 10:16:50;;;;;;;8.85;4.00;;;;;;;7.77;59.86;101344.94;125110;1099;104248;-76
2023/12/28 10:19:27;;;;;;;9.53;4.33;;;;;;;7.74;58.17;101329.08;126599;1098;101692;-79
2023/12/28 10:22:01;;;;;;;8.53;4.40;;;;;;;7.72;59.58;101325.48;124926;1099;101977;-76
2023/12/28 10:24:33;;;;;;;10.67;4.53;;;;;;;7.74;59.35;101316.02;124534;1102;118206;-76
2023/12/28 10:27:04;;;;;;;11.57;4.60;;;;;;;7.69;59.30;101310.52;125092;1098;104212;-77
2023/12/28 10:29:43;;;;;;;13.80;5.23;;;;;;;7.71;59.54;101297.55;124657;1099;104171;-75
2023/12/28 10:32:14;;;;;;;13.27;4.90;;;;;;;7.70;58.83;101290.53;124810;1099;101927;-76
2023/12/28 10:34:49;;;;;;;11.83;4.73;;;;;;;7.70;58.98;101290.53;124922;1099;101984;-75
2023/12/28 10:37:22;;;;;;;11.20;4.43;;;;;;;7.65;58.71;101291.95;125110;1099;104239;-74
2023/12/28 10:39:56;;;;;;;10.70;4.60;;;;;;;7.59;58.36;101284.67;125540;1099;102091;-74
2023/12/28 10:42:32;;;;;;;12.55;4.67;;;;;;;7.55;58.98;101286.17;125508;1098;104176;-74
2023/12/28 10:45:11;;;;;;;12.23;4.77;;;;;;;7.56;59.20;101276.64;124423;1099;109695;-74
2023/12/28 10:47:51;;;;;;;10.30;4.47;;;;;;;7.56;58.64;101269.70;124862;1099;104172;-74
2023/12/28 10:50:23;;;;;;;12.97;5.80;;;;;;;7.57;59.15;101267.98;124704;1099;104323;-73
2023/12/28 10:53:17;;;;;;;11.20;4.37;;;;;;;7.61;58.85;101269.09;125115;1099;104092;-76
2023/12/28 10:56:00;;;;;;;10.93;4.70;;;;;;;7.63;59.26;101270.07;125015;1099;104310;-75
2023/12/28 10:58:41;;;;;;;11.87;5.00;;;;;;;7.66;58.93;101280.70;124985;1099;104248;-75
2023/12/28 11:01:24;;;;;;;12.70;5.00;;;;;;;7.68;59.00;101279.07;124631;1099;104226;-75
2023/12/28 11:04:05;;;;;;;13.87;5.57;;;;;;;7.74;58.90;101279.44;125144;1099;104287;-74
2023/12/28 11:06:37;;;;;;;13.50;5.10;;;;;;;7.75;59.24;101273.41;124881;1099;104232;-78
2023/12/28 12:10:19;;;;;;;15.20;5.63;;;;;;;7.71;60.45;101162.63;115262;1102;10001860;-73
2023/12/28 12:12:52;;;;;;;12.83;5.60;;;;;;;7.74;60.00;101160.19;123803;1105;104277;-75
2023/12/28 12:15:23;;;;;;;15.33;5.93;;;;;;;7.77;60.16;101151.60;124293;1105;104319;-76
2023/12/28 12:18:03;;;;;;;14.77;6.33;;;;;;;7.77;60.47;101135.92;124261;1105;104386;-75
2023/12/28 12:20:38;;;;;;;16.57;5.53;;;;;;;7.80;60.67;101132.59;124185;1105;104235;-75
2023/12/28 12:23:11;;;;;;;13.30;5.65;;;;;;;7.82;60.65;101134.50;123777;1105;104189;-76
2023/12/28 12:25:45;;;;;;;15.37;6.30;;;;;;;7.84;60.21;101129.36;123994;1104;104217;-76
2023/12/28 12:28:16;;;;;;;14.10;5.80;;;;;;;7.87;60.49;101119.09;124531;1105;104361;-76